sensor_id;sensor_type;location;lat;lon;timestamp;pressure;altitude;pressure_sealevel;temperature;humidity
32456;BME280;18912;43.270;27.942;2023-04-21T00:00:32;97614.16;;;18.07;51.98
32456;BME280;18912;43.270;27.942;2023-04-21T00:02:57;97613.06;;;18.08;51.93
32456;BME280;18912;43.270;27.942;2023-04-21T00:05:23;97606.44;;;17.99;52.30
32456;BME280;18912;43.270;27.942;2023-04-21T00:07:48;97612.44;;;17.91;52.77
32456;BME280;18912;43.270;27.942;2023-04-21T00:10:13;97603.91;;;17.83;53.00
32456;BME280;18912;43.270;27.942;2023-04-21T00:12:39;97604.78;;;17.93;52.42
32456;BME280;18912;43.270;27.942;2023-04-21T00:15:04;97606.91;;;17.81;53.00
32456;BME280;18912;43.270;27.942;2023-04-21T00:17:30;97605.00;;;17.82;52.92
32456;BME280;18912;43.270;27.942;2023-04-21T00:19:55;97601.94;;;17.73;53.18
32456;BME280;18912;43.270;27.942;2023-04-21T00:22:21;97598.72;;;17.81;53.11
32456;BME280;18912;43.270;27.942;2023-04-21T00:24:46;97602.78;;;17.79;53.13
32456;BME280;18912;43.270;27.942;2023-04-21T00:27:12;97594.09;;;17.92;52.61
32456;BME280;18912;43.270;27.942;2023-04-21T00:29:37;97596.25;;;17.85;52.53
32456;BME280;18912;43.270;27.942;2023-04-21T00:32:04;97597.06;;;17.80;52.71
32456;BME280;18912;43.270;27.942;2023-04-21T00:34:32;97593.81;;;17.88;52.41
32456;BME280;18912;43.270;27.942;2023-04-21T00:36:58;97588.28;;;17.73;52.65
32456;BME280;18912;43.270;27.942;2023-04-21T00:39:23;97586.94;;;17.81;52.64
32456;BME280;18912;43.270;27.942;2023-04-21T00:41:48;97587.22;;;17.79;52.17
32456;BME280;18912;43.270;27.942;2023-04-21T00:44:13;97589.09;;;17.73;51.98
32456;BME280;18912;43.270;27.942;2023-04-21T00:46:39;97591.59;;;17.80;52.10
32456;BME280;18912;43.270;27.942;2023-04-21T00:49:05;97591.63;;;17.85;52.18
32456;BME280;18912;43.270;27.942;2023-04-21T00:51:32;97585.44;;;17.53;53.19
32456;BME280;18912;43.270;27.942;2023-04-21T00:53:58;97591.56;;;17.75;52.70
32456;BME280;18912;43.270;27.942;2023-04-21T00:56:24;97576.03;;;17.86;52.81
32456;BME280;18912;43.270;27.942;2023-04-21T00:58:49;97580.44;;;17.92;52.74
32456;BME280;18912;43.270;27.942;2023-04-21T01:01:15;97579.63;;;17.91;52.90
32456;BME280;18912;43.270;27.942;2023-04-21T01:03:41;97579.09;;;17.94;52.35
32456;BME280;18912;43.270;27.942;2023-04-21T01:06:06;97569.78;;;17.90;52.58
32456;BME280;18912;43.270;27.942;2023-04-21T01:08:32;97571.59;;;17.74;52.83
32456;BME280;18912;43.270;27.942;2023-04-21T01:10:58;97568.09;;;17.84;52.70
32456;BME280;18912;43.270;27.942;2023-04-21T01:13:24;97575.22;;;17.85;52.14
32456;BME280;18912;43.270;27.942;2023-04-21T01:15:49;97574.41;;;17.85;52.24
32456;BME280;18912;43.270;27.942;2023-04-21T01:18:14;97564.28;;;17.85;52.29
32456;BME280;18912;43.270;27.942;2023-04-21T01:20:42;97565.13;;;17.91;52.03
32456;BME280;18912;43.270;27.942;2023-04-21T01:23:09;97555.25;;;17.85;52.09
32456;BME280;18912;43.270;27.942;2023-04-21T01:25:34;97557.16;;;17.84;52.20
32456;BME280;18912;43.270;27.942;2023-04-21T01:28:00;97550.63;;;17.90;51.98
32456;BME280;18912;43.270;27.942;2023-04-21T01:30:25;97548.44;;;17.87;52.08
32456;BME280;18912;43.270;27.942;2023-04-21T01:32:50;97550.06;;;17.83;52.04
32456;BME280;18912;43.270;27.942;2023-04-21T01:35:16;97547.06;;;17.85;52.06
32456;BME280;18912;43.270;27.942;2023-04-21T01:37:41;97550.91;;;17.89;51.86
32456;BME280;18912;43.270;27.942;2023-04-21T01:40:07;97546.78;;;17.86;52.00
32456;BME280;18912;43.270;27.942;2023-04-21T01:42:36;97551.97;;;17.83;51.78
32456;BME280;18912;43.270;27.942;2023-04-21T01:45:02;97554.63;;;17.67;52.14
32456;BME280;18912;43.270;27.942;2023-04-21T01:47:27;97552.53;;;17.85;51.93
32456;BME280;18912;43.270;27.942;2023-04-21T01:49:53;97550.56;;;17.75;51.93
32456;BME280;18912;43.270;27.942;2023-04-21T01:52:18;97544.47;;;17.58;51.99
32456;BME280;18912;43.270;27.942;2023-04-21T01:54:43;97544.47;;;17.63;51.67
32456;BME280;18912;43.270;27.942;2023-04-21T01:57:09;97555.38;;;17.53;51.93
32456;BME280;18912;43.270;27.942;2023-04-21T01:59:34;97544.75;;;17.61;52.15
32456;BME280;18912;43.270;27.942;2023-04-21T02:01:59;97548.84;;;17.59;52.01
32456;BME280;18912;43.270;27.942;2023-04-21T02:04:25;97549.38;;;17.56;52.04
32456;BME280;18912;43.270;27.942;2023-04-21T02:06:50;97544.47;;;17.58;52.44
32456;BME280;18912;43.270;27.942;2023-04-21T02:09:15;97541.72;;;17.58;52.45
32456;BME280;18912;43.270;27.942;2023-04-21T02:11:41;97535.72;;;17.61;52.35
32456;BME280;18912;43.270;27.942;2023-04-21T02:14:06;97532.44;;;17.59;52.34
32456;BME280;18912;43.270;27.942;2023-04-21T02:16:32;97530.81;;;17.58;52.49
32456;BME280;18912;43.270;27.942;2023-04-21T02:18:57;97529.13;;;17.52;52.75
32456;BME280;18912;43.270;27.942;2023-04-21T02:21:23;97526.34;;;17.47;52.73
32456;BME280;18912;43.270;27.942;2023-04-21T02:23:49;97532.97;;;17.51;52.64
32456;BME280;18912;43.270;27.942;2023-04-21T02:26:15;97533.53;;;17.53;52.87
32456;BME280;18912;43.270;27.942;2023-04-21T02:28:40;97513.28;;;17.49;52.89
32456;BME280;18912;43.270;27.942;2023-04-21T02:31:06;97523.31;;;17.43;52.90
32456;BME280;18912;43.270;27.942;2023-04-21T02:33:31;97526.41;;;17.52;52.74
32456;BME280;18912;43.270;27.942;2023-04-21T02:35:56;97523.94;;;17.50;52.61
32456;BME280;18912;43.270;27.942;2023-04-21T02:38:22;97522.50;;;17.43;52.90
32456;BME280;18912;43.270;27.942;2023-04-21T02:40:47;97528.16;;;17.31;53.00
32456;BME280;18912;43.270;27.942;2023-04-21T02:43:14;97525.78;;;17.40;53.03
32456;BME280;18912;43.270;27.942;2023-04-21T02:45:39;97515.38;;;17.42;53.01
32456;BME280;18912;43.270;27.942;2023-04-21T02:48:05;97513.53;;;17.47;53.26
32456;BME280;18912;43.270;27.942;2023-04-21T02:50:30;97504.50;;;17.47;53.01
32456;BME280;18912;43.270;27.942;2023-04-21T02:52:56;97516.75;;;17.44;53.21
32456;BME280;18912;43.270;27.942;2023-04-21T02:55:21;97515.41;;;17.47;53.25
32456;BME280;18912;43.270;27.942;2023-04-21T02:57:47;97517.41;;;17.56;53.40
32456;BME280;18912;43.270;27.942;2023-04-21T03:00:12;97524.50;;;17.57;53.14
32456;BME280;18912;43.270;27.942;2023-04-21T03:02:38;97525.91;;;17.60;53.23
32456;BME280;18912;43.270;27.942;2023-04-21T03:05:03;97524.50;;;17.57;53.14
32456;BME280;18912;43.270;27.942;2023-04-21T03:07:29;97528.63;;;17.60;53.35
32456;BME280;18912;43.270;27.942;2023-04-21T03:09:54;97515.81;;;17.65;53.36
32456;BME280;18912;43.270;27.942;2023-04-21T03:12:19;97528.66;;;17.65;53.29
32456;BME280;18912;43.270;27.942;2023-04-21T03:14:45;97533.31;;;17.64;53.27
32456;BME280;18912;43.270;27.942;2023-04-21T03:17:10;97532.53;;;17.74;53.16
32456;BME280;18912;43.270;27.942;2023-04-21T03:19:35;97531.66;;;17.68;53.32
32456;BME280;18912;43.270;27.942;2023-04-21T03:22:01;97534.94;;;17.70;53.34
32456;BME280;18912;43.270;27.942;2023-04-21T03:24:26;97538.53;;;17.76;52.95
32456;BME280;18912;43.270;27.942;2023-04-21T03:26:51;97529.53;;;17.81;53.24
32456;BME280;18912;43.270;27.942;2023-04-21T03:29:17;97532.53;;;17.79;53.13
32456;BME280;18912;43.270;27.942;2023-04-21T03:31:42;97530.88;;;17.78;53.38
32456;BME280;18912;43.270;27.942;2023-04-21T03:34:08;97536.94;;;17.85;52.88
32456;BME280;18912;43.270;27.942;2023-04-21T03:36:33;97529.31;;;17.87;53.14
32456;BME280;18912;43.270;27.942;2023-04-21T03:38:58;97526.00;;;17.85;53.16
32456;BME280;18912;43.270;27.942;2023-04-21T03:41:23;97521.94;;;17.93;53.05
32456;BME280;18912;43.270;27.942;2023-04-21T03:43:49;97519.16;;;17.88;52.95
32456;BME280;18912;43.270;27.942;2023-04-21T03:46:16;97516.16;;;17.84;52.81
32456;BME280;18912;43.270;27.942;2023-04-21T03:48:41;97519.38;;;17.66;53.23
32456;BME280;18912;43.270;27.942;2023-04-21T03:51:07;97530.09;;;17.88;52.82
32456;BME280;18912;43.270;27.942;2023-04-21T03:53:32;97521.94;;;17.98;52.64
32456;BME280;18912;43.270;27.942;2023-04-21T03:55:57;97536.41;;;17.83;52.89
32456;BME280;18912;43.270;27.942;2023-04-21T03:58:22;97535.56;;;17.83;53.09
32456;BME280;18912;43.270;27.942;2023-04-21T04:00:48;97537.47;;;17.82;53.09
32456;BME280;18912;43.270;27.942;2023-04-21T04:03:13;97547.38;;;17.98;53.16
32456;BME280;18912;43.270;27.942;2023-04-21T04:05:38;97539.97;;;17.94;53.25
32456;BME280;18912;43.270;27.942;2023-04-21T04:08:04;97540.25;;;17.87;53.52
32456;BME280;18912;43.270;27.942;2023-04-21T04:10:29;97544.63;;;17.93;53.44
32456;BME280;18912;43.270;27.942;2023-04-21T04:12:54;97556.66;;;17.87;53.60
32456;BME280;18912;43.270;27.942;2023-04-21T04:15:19;97556.03;;;17.75;53.82
32456;BME280;18912;43.270;27.942;2023-04-21T04:17:45;97556.50;;;17.20;54.56
32456;BME280;18912;43.270;27.942;2023-04-21T04:20:10;97558.81;;;17.02;55.43
32456;BME280;18912;43.270;27.942;2023-04-21T04:22:36;97557.81;;;17.49;54.51
32456;BME280;18912;43.270;27.942;2023-04-21T04:25:02;97564.16;;;17.65;54.13
32456;BME280;18912;43.270;27.942;2023-04-21T04:27:27;97564.25;;;17.80;53.82
32456;BME280;18912;43.270;27.942;2023-04-21T04:29:53;97562.13;;;17.97;53.44
32456;BME280;18912;43.270;27.942;2023-04-21T04:32:18;97561.63;;;18.05;53.24
32456;BME280;18912;43.270;27.942;2023-04-21T04:34:44;97565.47;;;18.09;52.79
32456;BME280;18912;43.270;27.942;2023-04-21T04:37:10;97562.78;;;18.19;52.63
32456;BME280;18912;43.270;27.942;2023-04-21T04:39:37;97557.81;;;18.16;52.54
32456;BME280;18912;43.270;27.942;2023-04-21T04:42:02;97569.38;;;18.23;52.70
32456;BME280;18912;43.270;27.942;2023-04-21T04:44:30;97567.94;;;18.11;52.83
32456;BME280;18912;43.270;27.942;2023-04-21T04:46:55;97569.00;;;18.05;53.05
32456;BME280;18912;43.270;27.942;2023-04-21T04:49:21;97563.91;;;18.28;52.36
32456;BME280;18912;43.270;27.942;2023-04-21T04:51:46;97556.78;;;18.27;52.37
32456;BME280;18912;43.270;27.942;2023-04-21T04:54:11;97550.72;;;18.10;52.82
32456;BME280;18912;43.270;27.942;2023-04-21T04:56:37;97553.50;;;18.30;52.34
32456;BME280;18912;43.270;27.942;2023-04-21T04:59:02;97555.22;;;18.51;51.98
32456;BME280;18912;43.270;27.942;2023-04-21T05:01:27;97555.25;;;18.67;52.35
32456;BME280;18912;43.270;27.942;2023-04-21T05:03:55;97553.63;;;18.76;52.15
32456;BME280;18912;43.270;27.942;2023-04-21T05:06:20;97562.94;;;18.80;52.01
32456;BME280;18912;43.270;27.942;2023-04-21T05:08:45;97563.72;;;18.60;51.80
32456;BME280;18912;43.270;27.942;2023-04-21T05:11:11;97562.38;;;18.78;51.46
32456;BME280;18912;43.270;27.942;2023-04-21T05:13:36;97566.75;;;18.84;51.57
32456;BME280;18912;43.270;27.942;2023-04-21T05:16:01;97562.91;;;18.70;51.53
32456;BME280;18912;43.270;27.942;2023-04-21T05:18:27;97572.50;;;18.92;51.64
32456;BME280;18912;43.270;27.942;2023-04-21T05:20:52;97572.78;;;19.06;51.51
32456;BME280;18912;43.270;27.942;2023-04-21T05:23:17;97578.25;;;19.06;51.23
32456;BME280;18912;43.270;27.942;2023-04-21T05:25:43;97579.34;;;19.15;50.79
32456;BME280;18912;43.270;27.942;2023-04-21T05:28:08;97577.16;;;19.17;50.98
32456;BME280;18912;43.270;27.942;2023-04-21T05:30:34;97578.81;;;19.18;51.18
32456;BME280;18912;43.270;27.942;2023-04-21T05:32:59;97584.84;;;19.15;51.41
32456;BME280;18912;43.270;27.942;2023-04-21T05:35:24;97581.56;;;18.93;51.28
32456;BME280;18912;43.270;27.942;2023-04-21T05:37:50;97577.19;;;19.12;51.17
32456;BME280;18912;43.270;27.942;2023-04-21T05:40:15;97576.06;;;19.23;50.96
32456;BME280;18912;43.270;27.942;2023-04-21T05:42:40;97574.72;;;19.20;50.70
32456;BME280;18912;43.270;27.942;2023-04-21T05:45:06;97566.75;;;19.14;50.58
32456;BME280;18912;43.270;27.942;2023-04-21T05:47:31;97571.16;;;19.10;50.23
32456;BME280;18912;43.270;27.942;2023-04-21T05:49:56;97570.59;;;19.28;49.87
32456;BME280;18912;43.270;27.942;2023-04-21T05:52:22;97578.84;;;19.33;49.93
32456;BME280;18912;43.270;27.942;2023-04-21T05:54:47;97591.41;;;19.54;49.76
32456;BME280;18912;43.270;27.942;2023-04-21T05:57:13;97599.06;;;19.57;49.59
32456;BME280;18912;43.270;27.942;2023-04-21T05:59:40;97593.03;;;18.85;50.79
32456;BME280;18912;43.270;27.942;2023-04-21T06:02:05;97592.50;;;18.83;51.02
32456;BME280;18912;43.270;27.942;2023-04-21T06:04:31;97585.41;;;19.07;50.47
32456;BME280;18912;43.270;27.942;2023-04-21T06:06:56;97594.09;;;18.63;51.21
32456;BME280;18912;43.270;27.942;2023-04-21T06:09:22;97587.72;;;18.33;51.35
32456;BME280;18912;43.270;27.942;2023-04-21T06:11:47;97603.03;;;17.72;53.18
32456;BME280;18912;43.270;27.942;2023-04-21T06:14:12;97611.50;;;18.27;52.06
32456;BME280;18912;43.270;27.942;2023-04-21T06:16:37;97610.28;;;17.98;52.64
32456;BME280;18912;43.270;27.942;2023-04-21T06:19:03;97610.63;;;17.60;52.93
32456;BME280;18912;43.270;27.942;2023-04-21T06:21:28;97610.69;;;17.38;53.73
32456;BME280;18912;43.270;27.942;2023-04-21T06:23:53;97618.03;;;17.64;53.28
32456;BME280;18912;43.270;27.942;2023-04-21T06:26:19;97622.81;;;17.47;53.56
32456;BME280;18912;43.270;27.942;2023-04-21T06:28:44;97626.94;;;17.18;54.20
32456;BME280;18912;43.270;27.942;2023-04-21T06:31:10;97628.47;;;17.41;53.70
32456;BME280;18912;43.270;27.942;2023-04-21T06:33:39;97624.81;;;17.57;53.20
32456;BME280;18912;43.270;27.942;2023-04-21T06:36:04;97626.13;;;17.49;53.11
32456;BME280;18912;43.270;27.942;2023-04-21T06:38:30;97620.69;;;16.91;54.29
32456;BME280;18912;43.270;27.942;2023-04-21T06:40:55;97616.28;;;17.17;53.87
32456;BME280;18912;43.270;27.942;2023-04-21T06:43:21;97622.78;;;17.11;53.89
32456;BME280;18912;43.270;27.942;2023-04-21T06:45:46;97630.94;;;17.42;53.24
32456;BME280;18912;43.270;27.942;2023-04-21T06:48:11;97631.25;;;17.46;53.21
32456;BME280;18912;43.270;27.942;2023-04-21T06:50:37;97629.25;;;17.68;52.67
32456;BME280;18912;43.270;27.942;2023-04-21T06:53:02;97640.03;;;17.48;53.23
32456;BME280;18912;43.270;27.942;2023-04-21T06:55:27;97645.28;;;17.54;53.24
32456;BME280;18912;43.270;27.942;2023-04-21T06:57:55;97643.25;;;17.40;53.13
32456;BME280;18912;43.270;27.942;2023-04-21T07:00:22;97643.06;;;17.20;53.80
32456;BME280;18912;43.270;27.942;2023-04-21T07:02:47;97645.63;;;17.00;54.45
32456;BME280;18912;43.270;27.942;2023-04-21T07:05:13;97645.50;;;16.85;54.10
32456;BME280;18912;43.270;27.942;2023-04-21T07:07:38;97652.88;;;16.89;53.74
32456;BME280;18912;43.270;27.942;2023-04-21T07:10:22;97652.34;;;17.19;54.16
32456;BME280;18912;43.270;27.942;2023-04-21T07:12:47;97643.53;;;17.43;53.80
32456;BME280;18912;43.270;27.942;2023-04-21T07:15:12;97648.91;;;17.65;53.79
32456;BME280;18912;43.270;27.942;2023-04-21T07:17:38;97642.38;;;17.71;53.67
32456;BME280;18912;43.270;27.942;2023-04-21T07:20:03;97642.28;;;17.56;53.78
32456;BME280;18912;43.270;27.942;2023-04-21T07:22:28;97648.38;;;17.36;54.20
32456;BME280;18912;43.270;27.942;2023-04-21T07:24:54;97644.22;;;16.97;55.14
32456;BME280;18912;43.270;27.942;2023-04-21T07:27:19;97647.28;;;17.69;53.69
32456;BME280;18912;43.270;27.942;2023-04-21T07:29:44;97637.22;;;17.06;54.21
32456;BME280;18912;43.270;27.942;2023-04-21T07:32:10;97632.84;;;17.42;53.85
32456;BME280;18912;43.270;27.942;2023-04-21T07:34:35;97630.59;;;17.65;53.73
32456;BME280;18912;43.270;27.942;2023-04-21T07:37:00;97629.47;;;18.08;53.60
32456;BME280;18912;43.270;27.942;2023-04-21T07:39:26;97630.47;;;17.92;53.69
32456;BME280;18912;43.270;27.942;2023-04-21T07:41:51;97625.47;;;18.31;53.96
32456;BME280;18912;43.270;27.942;2023-04-21T07:44:17;97621.06;;;18.30;53.68
32456;BME280;18912;43.270;27.942;2023-04-21T07:46:43;97625.75;;;18.34;53.55
32456;BME280;18912;43.270;27.942;2023-04-21T07:49:08;97621.91;;;18.30;53.22
32456;BME280;18912;43.270;27.942;2023-04-21T07:51:33;97620.19;;;18.86;52.06
32456;BME280;18912;43.270;27.942;2023-04-21T07:53:59;97610.59;;;19.29;51.06
32456;BME280;18912;43.270;27.942;2023-04-21T07:56:24;97611.13;;;18.86;51.42
32456;BME280;18912;43.270;27.942;2023-04-21T07:58:50;97614.16;;;19.04;50.56
32456;BME280;18912;43.270;27.942;2023-04-21T08:01:15;97610.03;;;19.27;49.80
32456;BME280;18912;43.270;27.942;2023-04-21T08:03:40;97614.84;;;20.15;49.01
32456;BME280;18912;43.270;27.942;2023-04-21T08:06:06;97614.75;;;20.40;48.13
32456;BME280;18912;43.270;27.942;2023-04-21T08:08:31;97618.38;;;20.80;46.79
32456;BME280;18912;43.270;27.942;2023-04-21T08:10:56;97619.16;;;20.41;47.24
32456;BME280;18912;43.270;27.942;2023-04-21T08:13:22;97622.72;;;20.37;46.08
32456;BME280;18912;43.270;27.942;2023-04-21T08:15:52;97622.41;;;20.92;45.92
32456;BME280;18912;43.270;27.942;2023-04-21T08:18:17;97616.41;;;20.36;45.32
32456;BME280;18912;43.270;27.942;2023-04-21T08:20:43;97614.38;;;20.62;45.39
32456;BME280;18912;43.270;27.942;2023-04-21T08:23:08;97620.44;;;20.54;45.41
32456;BME280;18912;43.270;27.942;2023-04-21T08:25:34;97622.94;;;21.04;44.58
32456;BME280;18912;43.270;27.942;2023-04-21T08:27:59;97622.13;;;20.94;45.03
32456;BME280;18912;43.270;27.942;2023-04-21T08:30:26;97612.94;;;20.70;44.28
32456;BME280;18912;43.270;27.942;2023-04-21T08:32:51;97618.88;;;20.87;44.01
32456;BME280;18912;43.270;27.942;2023-04-21T08:35:16;97624.72;;;20.26;44.76
32456;BME280;18912;43.270;27.942;2023-04-21T08:37:42;97621.81;;;20.57;43.81
32456;BME280;18912;43.270;27.942;2023-04-21T08:40:07;97622.56;;;21.16;43.26
32456;BME280;18912;43.270;27.942;2023-04-21T08:42:33;97612.19;;;21.08;43.58
32456;BME280;18912;43.270;27.942;2023-04-21T08:44:58;97613.50;;;20.72;43.61
32456;BME280;18912;43.270;27.942;2023-04-21T08:47:24;97609.63;;;20.78;43.10
32456;BME280;18912;43.270;27.942;2023-04-21T08:49:50;97596.66;;;21.22;43.35
32456;BME280;18912;43.270;27.942;2023-04-21T08:52:15;97605.50;;;21.19;42.62
32456;BME280;18912;43.270;27.942;2023-04-21T08:54:42;97615.25;;;21.35;42.59
32456;BME280;18912;43.270;27.942;2023-04-21T08:57:07;97602.34;;;21.93;42.79
32456;BME280;18912;43.270;27.942;2023-04-21T08:59:32;97602.50;;;22.49;42.05
32456;BME280;18912;43.270;27.942;2023-04-21T09:02:08;97609.00;;;22.58;41.25
32456;BME280;18912;43.270;27.942;2023-04-21T09:04:34;97603.44;;;22.81;40.60
32456;BME280;18912;43.270;27.942;2023-04-21T09:06:59;97608.72;;;22.78;39.93
32456;BME280;18912;43.270;27.942;2023-04-21T09:09:25;97606.38;;;23.22;39.49
32456;BME280;18912;43.270;27.942;2023-04-21T09:11:53;97606.13;;;22.44;39.00
32456;BME280;18912;43.270;27.942;2023-04-21T09:14:19;97608.19;;;23.32;39.34
32456;BME280;18912;43.270;27.942;2023-04-21T09:16:45;97609.91;;;24.05;38.12
32456;BME280;18912;43.270;27.942;2023-04-21T09:19:13;97604.91;;;24.48;37.02
32456;BME280;18912;43.270;27.942;2023-04-21T09:21:42;97607.38;;;24.99;36.43
32456;BME280;18912;43.270;27.942;2023-04-21T09:24:08;97599.38;;;25.11;35.62
32456;BME280;18912;43.270;27.942;2023-04-21T09:26:33;97609.13;;;23.73;36.95
32456;BME280;18912;43.270;27.942;2023-04-21T09:28:58;97595.59;;;24.31;36.87
32456;BME280;18912;43.270;27.942;2023-04-21T09:31:24;97607.53;;;23.85;35.88
32456;BME280;18912;43.270;27.942;2023-04-21T09:33:52;97609.41;;;24.58;36.13
32456;BME280;18912;43.270;27.942;2023-04-21T09:36:22;97602.03;;;24.26;35.81
32456;BME280;18912;43.270;27.942;2023-04-21T09:38:48;97608.00;;;23.74;35.97
32456;BME280;18912;43.270;27.942;2023-04-21T09:41:15;97612.34;;;23.93;36.00
32456;BME280;18912;43.270;27.942;2023-04-21T09:43:41;97611.63;;;24.01;35.73
32456;BME280;18912;43.270;27.942;2023-04-21T09:46:06;97614.31;;;24.06;36.04
32456;BME280;18912;43.270;27.942;2023-04-21T09:48:32;97615.25;;;24.16;35.00
32456;BME280;18912;43.270;27.942;2023-04-21T09:50:59;97617.72;;;23.39;36.12
32456;BME280;18912;43.270;27.942;2023-04-21T09:53:25;97618.38;;;23.31;36.17
32456;BME280;18912;43.270;27.942;2023-04-21T09:55:52;97624.66;;;22.99;36.36
32456;BME280;18912;43.270;27.942;2023-04-21T09:58:21;97617.88;;;22.92;36.76
32456;BME280;18912;43.270;27.942;2023-04-21T10:00:48;97616.78;;;22.51;37.82
32456;BME280;18912;43.270;27.942;2023-04-21T10:03:15;97611.41;;;22.41;38.31
32456;BME280;18912;43.270;27.942;2023-04-21T10:05:42;97615.59;;;22.57;37.94
32456;BME280;18912;43.270;27.942;2023-04-21T10:08:07;97618.84;;;22.64;37.90
32456;BME280;18912;43.270;27.942;2023-04-21T10:10:35;97615.09;;;22.07;37.71
32456;BME280;18912;43.270;27.942;2023-04-21T10:13:00;97612.66;;;22.29;38.40
32456;BME280;18912;43.270;27.942;2023-04-21T10:15:39;97611.41;;;22.17;38.32
32456;BME280;18912;43.270;27.942;2023-04-21T10:20:53;97605.09;;;22.16;38.44
32456;BME280;18912;43.270;27.942;2023-04-21T10:23:29;97606.59;;;22.04;38.38
32456;BME280;18912;43.270;27.942;2023-04-21T10:26:00;97612.00;;;22.38;38.26
32456;BME280;18912;43.270;27.942;2023-04-21T10:28:38;97610.25;;;21.99;39.15
32456;BME280;18912;43.270;27.942;2023-04-21T10:36:28;97603.16;;;22.83;37.15
32456;BME280;18912;43.270;27.942;2023-04-21T10:38:54;97601.63;;;23.09;36.24
32456;BME280;18912;43.270;27.942;2023-04-21T10:54:20;97615.53;;;23.55;36.05
32456;BME280;18912;43.270;27.942;2023-04-21T10:56:46;97612.59;;;23.33;36.62
32456;BME280;18912;43.270;27.942;2023-04-21T10:59:12;97602.56;;;23.55;36.46
32456;BME280;18912;43.270;27.942;2023-04-21T11:01:39;97601.84;;;23.31;36.94
32456;BME280;18912;43.270;27.942;2023-04-21T11:04:05;97614.22;;;22.59;37.43
32456;BME280;18912;43.270;27.942;2023-04-21T11:06:30;97621.06;;;22.62;36.72
32456;BME280;18912;43.270;27.942;2023-04-21T11:08:56;97618.19;;;22.72;36.72
32456;BME280;18912;43.270;27.942;2023-04-21T11:11:22;97610.66;;;21.54;38.07
32456;BME280;18912;43.270;27.942;2023-04-21T11:13:48;97614.69;;;21.67;39.17
32456;BME280;18912;43.270;27.942;2023-04-21T11:19:13;97605.25;;;22.25;37.30
32456;BME280;18912;43.270;27.942;2023-04-21T11:21:39;97603.19;;;21.88;37.92
32456;BME280;18912;43.270;27.942;2023-04-21T11:24:04;97592.09;;;21.41;37.86
32456;BME280;18912;43.270;27.942;2023-04-21T11:26:33;97605.53;;;22.00;37.67
32456;BME280;18912;43.270;27.942;2023-04-21T11:29:00;97605.28;;;22.67;37.90
32456;BME280;18912;43.270;27.942;2023-04-21T11:31:29;97591.50;;;23.04;36.91
32456;BME280;18912;43.270;27.942;2023-04-21T11:33:54;97592.72;;;22.98;37.04
32456;BME280;18912;43.270;27.942;2023-04-21T11:36:21;97591.16;;;23.43;36.05
32456;BME280;18912;43.270;27.942;2023-04-21T11:38:49;97589.31;;;23.39;35.91
32456;BME280;18912;43.270;27.942;2023-04-21T11:41:21;97596.34;;;23.77;36.74
32456;BME280;18912;43.270;27.942;2023-04-21T11:43:47;97594.50;;;23.59;35.95
32456;BME280;18912;43.270;27.942;2023-04-21T11:46:25;97591.94;;;24.22;35.42
32456;BME280;18912;43.270;27.942;2023-04-21T11:49:00;97592.09;;;23.98;36.16
32456;BME280;18912;43.270;27.942;2023-04-21T11:51:30;97602.50;;;23.87;35.70
32456;BME280;18912;43.270;27.942;2023-04-21T11:53:57;97607.94;;;23.47;36.10
32456;BME280;18912;43.270;27.942;2023-04-21T11:56:22;97603.06;;;23.57;36.37
32456;BME280;18912;43.270;27.942;2023-04-21T11:58:49;97603.50;;;23.13;36.65
32456;BME280;18912;43.270;27.942;2023-04-21T12:01:15;97596.19;;;22.85;37.22
32456;BME280;18912;43.270;27.942;2023-04-21T12:03:40;97599.75;;;23.04;37.59
32456;BME280;18912;43.270;27.942;2023-04-21T12:06:05;97597.91;;;23.00;37.27
32456;BME280;18912;43.270;27.942;2023-04-21T12:08:31;97598.97;;;23.55;37.64
32456;BME280;18912;43.270;27.942;2023-04-21T12:10:56;97605.34;;;23.18;37.23
32456;BME280;18912;43.270;27.942;2023-04-21T12:13:26;97622.28;;;23.30;36.71
32456;BME280;18912;43.270;27.942;2023-04-21T12:15:52;97618.84;;;23.70;37.45
32456;BME280;18912;43.270;27.942;2023-04-21T12:18:17;97624.88;;;23.40;36.63
32456;BME280;18912;43.270;27.942;2023-04-21T12:20:48;97622.44;;;22.83;37.43
32456;BME280;18912;43.270;27.942;2023-04-21T12:23:14;97623.81;;;22.62;37.93
32456;BME280;18912;43.270;27.942;2023-04-21T12:25:40;97612.75;;;22.43;38.21
32456;BME280;18912;43.270;27.942;2023-04-21T12:28:06;97615.09;;;22.07;37.86
32456;BME280;18912;43.270;27.942;2023-04-21T12:30:32;97630.59;;;22.46;37.56
32456;BME280;18912;43.270;27.942;2023-04-21T12:32:57;97628.50;;;22.61;37.88
32456;BME280;18912;43.270;27.942;2023-04-21T12:35:22;97627.34;;;21.96;38.41
32456;BME280;18912;43.270;27.942;2023-04-21T12:37:48;97627.47;;;22.34;38.51
32456;BME280;18912;43.270;27.942;2023-04-21T12:40:13;97628.75;;;21.60;39.17
32456;BME280;18912;43.270;27.942;2023-04-21T12:42:38;97620.56;;;21.55;39.81
32456;BME280;18912;43.270;27.942;2023-04-21T12:45:04;97612.19;;;21.99;38.53
32456;BME280;18912;43.270;27.942;2023-04-21T12:47:29;97609.47;;;22.17;39.00
32456;BME280;18912;43.270;27.942;2023-04-21T12:49:55;97616.03;;;21.69;39.09
32456;BME280;18912;43.270;27.942;2023-04-21T12:52:20;97610.97;;;21.81;38.42
32456;BME280;18912;43.270;27.942;2023-04-21T12:54:46;97618.75;;;22.03;38.46
32456;BME280;18912;43.270;27.942;2023-04-21T12:57:11;97619.50;;;22.08;38.36
32456;BME280;18912;43.270;27.942;2023-04-21T12:59:37;97611.16;;;21.61;38.72
32456;BME280;18912;43.270;27.942;2023-04-21T13:02:02;97617.88;;;21.79;38.83
32456;BME280;18912;43.270;27.942;2023-04-21T13:04:28;97607.09;;;22.11;38.22
32456;BME280;18912;43.270;27.942;2023-04-21T13:06:53;97598.59;;;22.73;36.91